This is the latest recevied weather packets stored in our database for station/object N0LTM. If no packets are shown the sender has not sent any weather packets the latest 10 day(s).
| Time | Temp. | Humidity | Pressure | Rain* | Wind** | Luminosity | Snow |
|---|---|---|---|---|---|---|---|
| 1777893054 | 8.89° C | 68% | 1003.6 hPa | 0 mm | - | - | - |
| 1777891252 | 8.89° C | 69% | 1003.7 hPa | 0 mm | - | - | - |
| 1777890056 | 8.33° C | 73% | 1003.8 hPa | 0 mm | - | - | - |
| 1777889754 | 7.78° C | 74% | 1003.9 hPa | 0 mm | - | - | - |
| 1777888859 | 7.78° C | 75% | 1004 hPa | 0 mm | - | - | - |
| 1777888256 | 7.78° C | 75% | 1004 hPa | 0 mm | - | - | - |
| 1777887359 | 7.78° C | 74% | 1004 hPa | 0 mm | - | - | - |
| 1777886756 | 7.78° C | 74% | 1004.1 hPa | 0 mm | - | - | - |
| 1777884954 | 8.33° C | 72% | 1004.2 hPa | 0 mm | - | - | - |
| 1777883454 | 8.89° C | 71% | 1004.1 hPa | 0 mm | - | - | - |
| 1777882555 | 8.89° C | 71% | 1004.2 hPa | 0 mm | - | - | - |
| 1777881661 | 8.89° C | 70% | 1004 hPa | 0 mm | - | - | - |
| 1777881352 | 9.44° C | 70% | 1004.3 hPa | 0 mm | - | - | - |
| 1777881053 | 9.44° C | 69% | 1004.2 hPa | 0 mm | - | - | - |
| 1777880452 | 9.44° C | 69% | 1004.4 hPa | 0 mm | - | - | - |
| 1777878655 | 10.56° C | 68% | 1005 hPa | 0 mm | - | - | - |
| 1777878354 | 10.56° C | 68% | 1005 hPa | 0 mm | - | - | - |
| 1777878053 | 10.56° C | 67% | 1005 hPa | 0 mm | - | - | - |
| 1777877752 | 10.56° C | 67% | 1005 hPa | 0 mm | - | - | - |
| 1777875357 | 11.67° C | 65% | 1005.7 hPa | 0 mm | - | - | - |
| 1777874455 | 11.67° C | 66% | 1005.8 hPa | 0 mm | - | - | - |
| 1777873554 | 11.67° C | 65% | 1005.8 hPa | 0 mm | - | - | - |
| 1777872955 | 11.67° C | 65% | 1005.8 hPa | 0 mm | - | - | - |
| 1777870555 | 12.78° C | 64% | 1005.8 hPa | 0 mm | - | - | - |
| 1777869060 | 12.78° C | 63% | 1005.8 hPa | 0 mm | - | - | - |
* Rain latest hour (hover to see other rain measurements)
** Current wind speed in m/s (hover to see current wind gust speed)